createdAt,value
2022-12-16T00:01:56.001Z,59.03
2022-12-16T00:04:31.738Z,55.35
2022-12-16T00:07:02.287Z,55.42
2022-12-16T00:09:34.980Z,52.45
2022-12-16T00:12:03.511Z,62.35
2022-12-16T00:14:31.986Z,58.15
2022-12-16T00:17:01.069Z,59.22
2022-12-16T00:19:32.460Z,64.18
2022-12-16T00:22:02.478Z,54.50
2022-12-16T00:24:32.330Z,58.55
2022-12-16T00:27:01.087Z,51.28
2022-12-16T00:29:29.633Z,57.17
2022-12-16T00:32:02.909Z,52.55
2022-12-16T00:34:32.292Z,52.45
2022-12-16T00:37:03.800Z,56.47
2022-12-16T00:39:32.565Z,49.42
2022-12-16T00:42:02.504Z,54.83
2022-12-16T00:44:34.382Z,49.67
2022-12-16T00:47:09.081Z,49.03
2022-12-16T00:49:38.538Z,52.72
2022-12-16T00:52:09.449Z,46.58
2022-12-16T00:54:38.095Z,56.45
2022-12-16T00:57:06.911Z,46.90
2022-12-16T00:59:42.754Z,53.38
2022-12-16T01:02:12.008Z,47.97
2022-12-16T01:04:41.373Z,45.97
2022-12-16T01:07:14.270Z,53.00
2022-12-16T01:09:51.611Z,50.17
2022-12-16T01:12:20.869Z,53.85
2022-12-16T01:14:53.099Z,50.40
2022-12-16T01:17:23.429Z,46.92
2022-12-16T01:19:55.323Z,43.42
2022-12-16T01:22:29.329Z,50.65
2022-12-16T01:24:58.354Z,56.55
2022-12-16T01:27:27.541Z,50.88
2022-12-16T01:29:57.416Z,46.75
2022-12-16T01:32:31.900Z,51.47
2022-12-16T01:35:01.096Z,45.80
2022-12-16T01:37:31.618Z,48.88
2022-12-16T01:40:07.203Z,55.45
2022-12-16T01:42:37.590Z,48.67
2022-12-16T01:45:33.201Z,49.20
2022-12-16T01:48:22.017Z,44.63
2022-12-16T01:51:02.591Z,48.72
2022-12-16T01:53:35.203Z,48.95
2022-12-16T01:56:11.403Z,48.00
2022-12-16T01:58:42.407Z,58.00
2022-12-16T02:01:11.138Z,50.72
2022-12-16T02:03:40.641Z,60.83
2022-12-16T02:06:09.834Z,49.03
2022-12-16T02:08:42.931Z,50.65
2022-12-16T02:11:39.385Z,46.25
2022-12-16T02:14:33.777Z,54.47
2022-12-16T02:17:19.278Z,50.13
2022-12-16T02:20:19.491Z,53.65
2022-12-16T02:23:07.613Z,54.38
2022-12-16T02:26:03.076Z,57.80
2022-12-16T02:28:58.101Z,53.42
2022-12-16T02:31:37.593Z,54.58
2022-12-16T02:34:26.343Z,58.75
2022-12-16T02:37:16.433Z,59.55
2022-12-16T02:39:50.410Z,56.88
2022-12-16T02:42:31.386Z,60.38
2022-12-16T02:45:07.174Z,55.00
2022-12-16T02:47:41.199Z,58.45
2022-12-16T02:50:22.881Z,72.45
2022-12-16T02:52:54.151Z,63.08
2022-12-16T02:55:28.965Z,62.75
2022-12-16T02:58:14.952Z,63.33
2022-12-16T03:00:58.307Z,64.22
2022-12-16T03:03:38.114Z,64.55
2022-12-16T03:06:16.285Z,68.40
2022-12-16T03:08:58.997Z,74.68
2022-12-16T03:11:31.177Z,61.22
2022-12-16T03:14:01.597Z,69.07
2022-12-16T03:16:35.167Z,65.47
2022-12-16T03:19:07.535Z,67.18
2022-12-16T03:21:46.505Z,61.85
2022-12-16T03:24:17.944Z,62.97
2022-12-16T03:26:58.324Z,59.55
2022-12-16T03:29:39.378Z,71.13
2022-12-16T03:32:18.557Z,64.93
2022-12-16T03:34:55.191Z,66.20
2022-12-16T03:37:34.293Z,71.50
2022-12-16T03:40:15.757Z,66.03
2022-12-16T03:42:48.873Z,67.15
2022-12-16T03:45:25.218Z,62.38
2022-12-16T03:48:03.448Z,63.58
2022-12-16T03:50:38.654Z,61.10
2022-12-16T03:53:07.996Z,73.80
2022-12-16T03:55:37.959Z,69.43
2022-12-16T03:58:07.598Z,66.43
2022-12-16T04:00:37.043Z,70.05
2022-12-16T04:03:11.492Z,68.38
2022-12-16T04:05:45.468Z,63.42
2022-12-16T04:08:20.266Z,70.85
2022-12-16T04:11:15.517Z,73.10
2022-12-16T04:14:14.629Z,65.40
2022-12-16T04:17:02.162Z,75.05
2022-12-16T04:19:55.252Z,68.45
2022-12-16T04:22:52.325Z,70.28
2022-12-16T04:25:53.439Z,76.57
2022-12-16T04:28:29.964Z,81.80
2022-12-16T04:31:08.693Z,77.28
2022-12-16T04:33:55.568Z,79.40
2022-12-16T04:36:42.462Z,76.60
2022-12-16T04:39:32.824Z,74.15
2022-12-16T04:42:22.217Z,82.63
2022-12-16T04:45:19.365Z,76.28
2022-12-16T04:48:09.284Z,75.95
2022-12-16T04:50:57.927Z,74.40
2022-12-16T04:53:55.462Z,69.32
2022-12-16T04:56:49.789Z,77.18
2022-12-16T04:59:57.730Z,80.85
2022-12-16T05:02:46.295Z,75.28
2022-12-16T05:05:33.013Z,81.47
2022-12-16T05:08:28.557Z,84.75
2022-12-16T05:11:18.575Z,74.97
2022-12-16T05:14:06.670Z,76.07
2022-12-16T05:16:54.202Z,92.47
2022-12-16T05:19:46.472Z,89.20
2022-12-16T05:22:35.646Z,94.70
2022-12-16T05:25:24.836Z,95.25
2022-12-16T05:28:17.459Z,90.00
2022-12-16T05:31:11.616Z,84.78
2022-12-16T05:33:59.074Z,99.40
2022-12-16T05:36:45.634Z,99.05
2022-12-16T05:39:32.450Z,98.75
2022-12-16T05:42:24.740Z,89.35
2022-12-16T05:45:11.681Z,97.10
2022-12-16T05:48:07.445Z,94.95
2022-12-16T05:51:00.144Z,102.55
2022-12-16T05:53:47.485Z,101.65
2022-12-16T05:56:37.562Z,101.93
2022-12-16T05:59:42.892Z,112.47
2022-12-16T06:02:38.119Z,102.68
2022-12-16T06:05:28.088Z,118.53
2022-12-16T06:08:20.824Z,122.80
2022-12-16T06:11:10.569Z,123.65
2022-12-16T06:14:00.977Z,119.88
2022-12-16T06:16:48.129Z,124.63
2022-12-16T06:19:40.610Z,129.75
2022-12-16T06:22:37.348Z,139.02
2022-12-16T06:25:30.386Z,119.10
2022-12-16T06:28:16.846Z,123.07
2022-12-16T06:31:06.862Z,124.90
2022-12-16T06:33:55.120Z,125.40
2022-12-16T06:36:44.472Z,123.30
2022-12-16T06:39:31.997Z,127.90
2022-12-16T06:42:21.391Z,129.82
2022-12-16T06:45:17.026Z,129.55
2022-12-16T06:48:03.726Z,117.28
2022-12-16T06:50:55.751Z,132.50
2022-12-16T06:53:45.293Z,118.45
2022-12-16T06:56:38.029Z,114.35
2022-12-16T06:59:28.162Z,110.38
2022-12-16T07:02:20.817Z,115.65
2022-12-16T07:05:10.150Z,110.28
2022-12-16T07:08:05.103Z,105.78
2022-12-16T07:10:55.134Z,111.05
2022-12-16T07:13:48.557Z,105.43
2022-12-16T07:16:46.860Z,104.93
2022-12-16T07:19:36.793Z,107.60
2022-12-16T07:22:27.193Z,108.15
2022-12-16T07:25:22.379Z,99.60
2022-12-16T07:28:23.715Z,111.18
2022-12-16T07:31:26.465Z,111.32
2022-12-16T07:34:22.174Z,98.47
2022-12-16T07:37:14.638Z,97.70
2022-12-16T07:40:10.126Z,97.20
2022-12-16T07:43:08.126Z,107.78
2022-12-16T07:45:58.858Z,106.40
2022-12-16T07:48:57.255Z,101.90
2022-12-16T07:51:46.726Z,110.13
2022-12-16T07:54:33.213Z,115.70
2022-12-16T07:57:31.751Z,116.38
2022-12-16T08:00:25.769Z,116.82
2022-12-16T08:03:18.377Z,109.18
2022-12-16T08:06:19.756Z,109.05
2022-12-16T08:09:09.093Z,110.03
2022-12-16T08:12:02.974Z,118.53
2022-12-16T08:14:55.275Z,124.35
2022-12-16T08:17:44.076Z,221.23
2022-12-16T08:20:30.159Z,127.40
2022-12-16T08:23:31.948Z,126.15
2022-12-16T08:26:21.243Z,120.80
2022-12-16T08:29:27.179Z,116.82
2022-12-16T08:32:16.832Z,110.03
2022-12-16T08:35:15.815Z,102.15
2022-12-16T08:38:20.597Z,100.32
2022-12-16T08:41:08.047Z,105.43
2022-12-16T08:43:58.037Z,106.15
2022-12-16T08:46:47.138Z,115.05
2022-12-16T08:49:36.415Z,100.60
2022-12-16T08:52:25.863Z,115.53
2022-12-16T08:55:27.658Z,108.22
2022-12-16T08:58:18.638Z,106.10
2022-12-16T09:01:12.739Z,112.40
2022-12-16T09:04:01.922Z,107.15
2022-12-16T09:06:48.985Z,101.25
2022-12-16T09:09:41.612Z,107.10
2022-12-16T09:12:34.565Z,106.10
2022-12-16T09:15:28.877Z,100.22
2022-12-16T09:18:32.748Z,103.13
2022-12-16T09:21:19.002Z,99.35
2022-12-16T09:24:05.467Z,91.80
2022-12-16T09:26:52.639Z,92.50
2022-12-16T09:29:50.207Z,91.55
2022-12-16T09:32:50.473Z,93.63
2022-12-16T09:35:45.446Z,90.63
2022-12-16T09:38:37.604Z,95.78
2022-12-16T09:41:47.422Z,90.63
2022-12-16T09:44:42.386Z,87.63
2022-12-16T09:47:43.245Z,100.95
2022-12-16T09:50:39.014Z,89.07
2022-12-16T09:53:29.265Z,92.32
2022-12-16T09:56:16.050Z,90.03
2022-12-16T09:59:05.642Z,91.20
2022-12-16T10:01:55.709Z,88.93
2022-12-16T10:04:47.062Z,92.25
2022-12-16T10:07:37.199Z,83.93
2022-12-16T10:10:35.888Z,98.20
2022-12-16T10:13:28.620Z,92.13
2022-12-16T10:16:23.410Z,91.35
2022-12-16T10:19:19.331Z,87.25
2022-12-16T10:22:18.586Z,87.82
2022-12-16T10:25:14.547Z,79.65
2022-12-16T10:28:04.413Z,84.75
2022-12-16T10:30:52.486Z,87.38
2022-12-16T10:33:40.971Z,73.03
2022-12-16T10:36:32.542Z,87.57
2022-12-16T10:39:23.898Z,83.45
2022-12-16T10:42:15.098Z,86.18
2022-12-16T10:45:08.877Z,88.93
2022-12-16T10:47:55.214Z,81.28
2022-12-16T10:50:42.365Z,83.75
2022-12-16T10:53:33.727Z,90.65
2022-12-16T10:56:40.024Z,75.00
2022-12-16T10:59:30.883Z,89.68
2022-12-16T11:02:18.269Z,75.70
2022-12-16T11:05:05.162Z,84.05
2022-12-16T11:07:53.601Z,81.57
2022-12-16T11:10:45.740Z,81.90
2022-12-16T11:13:37.308Z,86.45
2022-12-16T11:16:32.808Z,82.95
2022-12-16T11:19:18.715Z,79.18
2022-12-16T11:22:07.939Z,77.50
2022-12-16T11:24:57.830Z,82.95
2022-12-16T11:27:50.426Z,69.38
2022-12-16T11:30:42.987Z,74.30
2022-12-16T11:33:39.505Z,74.88
2022-12-16T11:36:32.415Z,76.55
2022-12-16T11:39:14.906Z,78.55
2022-12-16T11:42:03.531Z,74.05
2022-12-16T11:44:53.345Z,73.63
2022-12-16T11:47:49.286Z,73.00
2022-12-16T11:50:40.032Z,74.05
2022-12-16T11:53:44.097Z,64.20
2022-12-16T11:56:34.924Z,64.60
2022-12-16T11:59:31.534Z,83.75
2022-12-16T12:02:27.817Z,64.47
2022-12-16T12:05:18.619Z,69.15
2022-12-16T12:08:14.369Z,70.60
2022-12-16T12:11:20.652Z,74.07
2022-12-16T12:14:14.270Z,67.88
2022-12-16T12:17:10.579Z,69.07
2022-12-16T12:20:10.311Z,79.47
2022-12-16T12:22:58.788Z,67.97
2022-12-16T12:25:54.750Z,68.82
2022-12-16T12:28:51.123Z,65.68
2022-12-16T12:31:46.755Z,67.57
2022-12-16T12:34:44.263Z,60.53
2022-12-16T12:37:39.805Z,72.03
2022-12-16T12:40:43.792Z,57.53
2022-12-16T12:43:43.983Z,63.00
2022-12-16T12:46:39.780Z,65.43
2022-12-16T12:49:35.129Z,64.38
2022-12-16T12:52:30.178Z,66.18
2022-12-16T12:55:22.202Z,67.30
2022-12-16T12:58:16.609Z,57.85
2022-12-16T13:01:06.072Z,65.93
2022-12-16T13:03:56.828Z,64.03
2022-12-16T13:06:49.992Z,61.00
2022-12-16T13:09:49.596Z,59.35
2022-12-16T13:12:43.174Z,54.85
2022-12-16T13:15:51.977Z,66.13
2022-12-16T13:18:53.737Z,57.60
2022-12-16T13:22:01.958Z,65.65
2022-12-16T13:25:03.798Z,69.68
2022-12-16T13:28:13.649Z,63.78
2022-12-16T13:31:25.205Z,73.75
2022-12-16T13:34:13.879Z,74.32
2022-12-16T13:37:00.453Z,75.28
2022-12-16T13:39:51.983Z,74.90
2022-12-16T13:43:23.955Z,78.03
2022-12-16T13:47:02.932Z,72.57
2022-12-16T13:50:13.665Z,78.50
2022-12-16T13:53:19.511Z,76.75
2022-12-16T13:56:21.178Z,81.10
2022-12-16T13:59:27.996Z,84.00
2022-12-16T14:02:36.094Z,82.85
2022-12-16T14:05:41.982Z,83.45
2022-12-16T14:08:34.200Z,87.40
2022-12-16T14:11:23.722Z,85.03
2022-12-16T14:14:27.942Z,78.82
2022-12-16T14:17:30.393Z,87.80
2022-12-16T14:20:31.450Z,91.45
2022-12-16T14:23:57.988Z,89.55
2022-12-16T14:26:59.817Z,103.43
2022-12-16T14:29:51.609Z,88.28
2022-12-16T14:32:49.587Z,96.60
2022-12-16T14:35:41.356Z,97.95
2022-12-16T14:38:44.966Z,80.93
2022-12-16T14:41:32.261Z,81.15
2022-12-16T14:44:21.415Z,87.00
2022-12-16T14:47:16.786Z,84.13
2022-12-16T14:50:17.239Z,85.93
2022-12-16T14:53:06.310Z,96.13
2022-12-16T14:59:38.257Z,91.03
2022-12-16T15:02:55.477Z,93.50
2022-12-16T15:05:57.712Z,89.35
2022-12-16T15:09:05.602Z,106.10
2022-12-16T15:12:26.517Z,93.38
2022-12-16T15:15:32.018Z,95.72
2022-12-16T15:18:44.742Z,89.38
2022-12-16T15:21:56.238Z,101.45
2022-12-16T15:24:57.749Z,90.95
2022-12-16T15:27:56.734Z,87.40
2022-12-16T15:31:01.171Z,93.82
2022-12-16T15:33:51.666Z,108.45
2022-12-16T15:36:53.730Z,124.43
2022-12-16T15:40:09.429Z,118.63
2022-12-16T15:43:03.878Z,105.88
2022-12-16T15:45:59.795Z,111.28
2022-12-16T15:48:59.364Z,114.90
2022-12-16T15:52:10.652Z,109.32
2022-12-16T15:55:20.276Z,91.10
2022-12-16T15:58:23.609Z,106.20
2022-12-16T16:01:17.761Z,96.47
2022-12-16T16:04:26.613Z,109.53
2022-12-16T16:07:21.182Z,91.20
2022-12-16T16:10:36.167Z,110.30
2022-12-16T16:13:34.368Z,103.15
2022-12-16T16:16:38.978Z,103.13
2022-12-16T16:19:47.718Z,111.50
2022-12-16T16:22:57.914Z,138.23
2022-12-16T16:26:00.541Z,121.50
2022-12-16T16:29:04.749Z,107.82
2022-12-16T16:32:02.265Z,109.57
2022-12-16T16:34:59.951Z,118.72
2022-12-16T16:38:02.338Z,114.53
2022-12-16T16:40:53.854Z,113.18
2022-12-16T16:43:40.998Z,115.55
2022-12-16T16:46:54.642Z,107.95
2022-12-16T16:49:53.053Z,111.22
2022-12-16T16:52:53.002Z,117.60
2022-12-16T16:55:57.876Z,120.20
2022-12-16T16:58:58.569Z,114.63
2022-12-16T17:01:59.767Z,114.28
2022-12-16T17:04:57.585Z,111.40
2022-12-16T17:07:43.593Z,107.63
2022-12-16T17:10:44.520Z,106.82
2022-12-16T17:13:46.466Z,103.50
2022-12-16T17:16:44.185Z,102.65
2022-12-16T17:19:44.705Z,117.47
2022-12-16T17:22:39.589Z,108.50
2022-12-16T17:25:45.925Z,116.95
2022-12-16T17:28:50.144Z,114.20
2022-12-16T17:31:50.164Z,113.78
2022-12-16T17:34:54.267Z,108.63
2022-12-16T17:38:15.080Z,116.47
2022-12-16T17:41:11.001Z,114.55
2022-12-16T17:44:21.047Z,95.55
2022-12-16T17:47:12.509Z,110.90
2022-12-16T17:50:07.245Z,103.60
2022-12-16T17:53:05.825Z,98.30
2022-12-16T17:56:03.488Z,101.35
2022-12-16T17:58:57.942Z,98.03
2022-12-16T18:01:55.972Z,104.88
2022-12-16T18:04:57.979Z,109.82
2022-12-16T18:08:09.912Z,107.80
2022-12-16T18:14:31.799Z,96.15
2022-12-16T18:17:40.721Z,106.18
2022-12-16T18:20:42.823Z,104.72
2022-12-16T18:23:41.274Z,106.30
2022-12-16T18:26:44.241Z,108.68
2022-12-16T18:29:40.078Z,101.90
2022-12-16T18:32:35.466Z,119.20
2022-12-16T18:35:35.516Z,108.32
2022-12-16T18:38:24.602Z,125.32
2022-12-16T18:41:24.112Z,114.78
2022-12-16T18:48:04.566Z,105.68
2022-12-16T18:51:02.377Z,103.85
2022-12-16T18:54:11.868Z,110.68
2022-12-16T18:57:11.386Z,109.35
2022-12-16T19:00:17.206Z,100.32
2022-12-16T19:03:41.841Z,100.03
2022-12-16T19:06:47.427Z,106.38
2022-12-16T19:09:42.873Z,102.72
2022-12-16T19:12:57.873Z,103.00
2022-12-16T19:16:16.874Z,103.40
2022-12-16T19:19:26.069Z,102.03
2022-12-16T19:22:20.822Z,92.57
2022-12-16T19:25:19.288Z,95.22
2022-12-16T19:28:25.468Z,109.47
2022-12-16T19:31:21.619Z,97.18
2022-12-16T19:34:14.204Z,100.68
2022-12-16T19:37:03.482Z,106.55
2022-12-16T19:39:52.308Z,94.47
2022-12-16T19:42:48.834Z,97.28
2022-12-16T19:46:05.655Z,94.80
2022-12-16T19:49:06.023Z,100.60
2022-12-16T19:52:11.837Z,94.63
2022-12-16T19:55:15.582Z,93.95
2022-12-16T19:58:07.075Z,94.43
2022-12-16T20:00:59.305Z,95.38
2022-12-16T20:04:01.025Z,93.15
2022-12-16T20:06:55.971Z,91.20
2022-12-16T20:10:11.229Z,86.93
2022-12-16T20:13:22.091Z,96.05
2022-12-16T20:16:23.898Z,105.45
2022-12-16T20:19:28.565Z,88.43
2022-12-16T20:22:33.139Z,97.60
2022-12-16T20:25:37.116Z,91.88
2022-12-16T20:28:29.996Z,88.65
2022-12-16T20:31:24.252Z,107.25
2022-12-16T20:34:23.263Z,90.45
2022-12-16T20:37:21.379Z,99.20
2022-12-16T20:40:39.501Z,96.43
2022-12-16T20:43:38.731Z,98.47
2022-12-16T20:46:44.826Z,88.60
2022-12-16T20:49:43.809Z,99.25
2022-12-16T20:52:46.586Z,81.45
2022-12-16T20:55:39.718Z,93.47
2022-12-16T20:58:42.969Z,95.03
2022-12-16T21:02:14.994Z,103.32
2022-12-16T21:05:09.052Z,92.00
2022-12-16T21:08:23.372Z,103.63
2022-12-16T21:11:29.669Z,97.65
2022-12-16T21:14:24.732Z,99.22
2022-12-16T21:17:28.013Z,98.55
2022-12-16T21:20:23.883Z,88.78
2022-12-16T21:23:25.057Z,90.65
2022-12-16T21:26:29.035Z,80.53
2022-12-16T21:29:28.679Z,89.65
2022-12-16T21:32:21.333Z,85.25
2022-12-16T21:35:19.664Z,88.10
2022-12-16T21:38:11.163Z,98.55
2022-12-16T21:41:09.867Z,87.05
2022-12-16T21:44:06.181Z,92.50
2022-12-16T21:47:07.542Z,97.13
2022-12-16T21:50:05.130Z,98.47
2022-12-16T21:53:07.072Z,87.53
2022-12-16T21:56:01.640Z,89.20
2022-12-16T21:59:04.278Z,92.32
2022-12-16T22:02:02.060Z,94.55
2022-12-16T22:04:57.477Z,100.03
2022-12-16T22:07:57.463Z,108.15
2022-12-16T22:10:59.535Z,101.32
2022-12-16T22:14:12.477Z,113.90
2022-12-16T22:17:12.762Z,110.38
2022-12-16T22:20:04.873Z,99.13
2022-12-16T22:22:56.897Z,115.13
2022-12-16T22:25:48.866Z,94.70
2022-12-16T22:28:37.645Z,95.43
2022-12-16T22:31:24.167Z,100.15
2022-12-16T22:34:15.764Z,104.05
2022-12-16T22:37:08.273Z,106.90
2022-12-16T22:40:03.957Z,103.07
2022-12-16T22:42:57.197Z,106.05
2022-12-16T22:45:53.635Z,99.45
2022-12-16T22:49:03.866Z,109.07
2022-12-16T22:51:58.110Z,97.90
2022-12-16T22:54:55.262Z,103.40
2022-12-16T22:57:50.988Z,103.95
2022-12-16T23:00:56.393Z,100.20
2022-12-16T23:03:59.124Z,102.80
2022-12-16T23:06:56.235Z,108.80
2022-12-16T23:09:59.123Z,110.28
2022-12-16T23:13:02.094Z,111.63
2022-12-16T23:16:28.865Z,118.75
2022-12-16T23:19:33.703Z,105.13
2022-12-16T23:22:28.807Z,110.10
2022-12-16T23:25:29.504Z,93.72
2022-12-16T23:28:30.708Z,106.95
2022-12-16T23:31:29.745Z,114.07
2022-12-16T23:34:22.895Z,99.47
2022-12-16T23:37:28.084Z,99.00
2022-12-16T23:40:30.933Z,106.70
2022-12-16T23:43:42.561Z,109.82
2022-12-16T23:46:44.243Z,93.72
2022-12-16T23:49:43.023Z,118.60
2022-12-16T23:52:41.281Z,98.20
2022-12-16T23:55:43.101Z,123.13
2022-12-16T23:58:30.475Z,112.88
